sensor_id;sensor_type;location;lat;lon;timestamp;P1;durP1;ratioP1;P2;durP2;ratioP2
26594;SDS011;14238;49.496;8.154;2024-02-21T00:00:13;15.23;;;8.20;;
26594;SDS011;14238;49.496;8.154;2024-02-21T00:02:39;14.00;;;8.97;;
26594;SDS011;14238;49.496;8.154;2024-02-21T00:05:05;16.17;;;9.30;;
26594;SDS011;14238;49.496;8.154;2024-02-21T00:07:31;9.10;;;7.60;;
26594;SDS011;14238;49.496;8.154;2024-02-21T00:09:56;10.67;;;8.00;;
26594;SDS011;14238;49.496;8.154;2024-02-21T00:12:22;12.40;;;9.13;;
26594;SDS011;14238;49.496;8.154;2024-02-21T00:14:47;10.83;;;7.83;;
26594;SDS011;14238;49.496;8.154;2024-02-21T00:17:13;9.77;;;7.50;;
26594;SDS011;14238;49.496;8.154;2024-02-21T00:19:38;13.73;;;7.80;;
26594;SDS011;14238;49.496;8.154;2024-02-21T00:22:04;14.17;;;9.50;;
26594;SDS011;14238;49.496;8.154;2024-02-21T00:24:29;8.93;;;8.00;;
26594;SDS011;14238;49.496;8.154;2024-02-21T00:26:55;10.53;;;7.57;;
26594;SDS011;14238;49.496;8.154;2024-02-21T00:29:20;12.23;;;7.80;;
26594;SDS011;14238;49.496;8.154;2024-02-21T00:31:47;13.30;;;9.07;;
26594;SDS011;14238;49.496;8.154;2024-02-21T00:34:14;9.93;;;7.27;;
26594;SDS011;14238;49.496;8.154;2024-02-21T00:36:39;14.53;;;8.07;;
26594;SDS011;14238;49.496;8.154;2024-02-21T00:39:05;14.17;;;8.77;;
26594;SDS011;14238;49.496;8.154;2024-02-21T00:41:31;13.50;;;7.67;;
26594;SDS011;14238;49.496;8.154;2024-02-21T00:43:57;9.07;;;6.93;;
26594;SDS011;14238;49.496;8.154;2024-02-21T00:46:22;15.83;;;8.50;;
26594;SDS011;14238;49.496;8.154;2024-02-21T00:48:48;10.20;;;7.80;;
26594;SDS011;14238;49.496;8.154;2024-02-21T00:51:14;12.37;;;8.33;;
26594;SDS011;14238;49.496;8.154;2024-02-21T00:53:40;11.53;;;8.00;;
26594;SDS011;14238;49.496;8.154;2024-02-21T00:56:07;8.80;;;7.70;;
26594;SDS011;14238;49.496;8.154;2024-02-21T00:58:32;14.13;;;9.20;;
26594;SDS011;14238;49.496;8.154;2024-02-21T01:00:58;12.73;;;8.60;;
26594;SDS011;14238;49.496;8.154;2024-02-21T01:03:23;12.20;;;8.03;;
26594;SDS011;14238;49.496;8.154;2024-02-21T01:05:49;14.10;;;8.73;;
26594;SDS011;14238;49.496;8.154;2024-02-21T01:08:14;13.00;;;8.60;;
26594;SDS011;14238;49.496;8.154;2024-02-21T01:10:40;10.30;;;7.77;;
26594;SDS011;14238;49.496;8.154;2024-02-21T01:13:05;8.80;;;7.63;;
26594;SDS011;14238;49.496;8.154;2024-02-21T01:15:32;13.43;;;8.90;;
26594;SDS011;14238;49.496;8.154;2024-02-21T01:17:58;13.97;;;8.27;;
26594;SDS011;14238;49.496;8.154;2024-02-21T01:20:23;9.10;;;6.47;;
26594;SDS011;14238;49.496;8.154;2024-02-21T01:22:49;14.07;;;7.33;;
26594;SDS011;14238;49.496;8.154;2024-02-21T01:25:14;15.07;;;8.17;;
26594;SDS011;14238;49.496;8.154;2024-02-21T01:27:40;9.33;;;7.57;;
26594;SDS011;14238;49.496;8.154;2024-02-21T01:30:06;10.07;;;6.73;;
26594;SDS011;14238;49.496;8.154;2024-02-21T01:32:32;13.13;;;6.80;;
26594;SDS011;14238;49.496;8.154;2024-02-21T01:34:58;7.17;;;6.47;;
26594;SDS011;14238;49.496;8.154;2024-02-21T01:37:24;15.67;;;7.23;;
26594;SDS011;14238;49.496;8.154;2024-02-21T01:39:50;10.10;;;7.13;;
26594;SDS011;14238;49.496;8.154;2024-02-21T01:42:15;11.07;;;7.00;;
26594;SDS011;14238;49.496;8.154;2024-02-21T01:44:41;10.33;;;7.43;;
26594;SDS011;14238;49.496;8.154;2024-02-21T01:47:06;9.70;;;5.60;;
26594;SDS011;14238;49.496;8.154;2024-02-21T01:49:32;7.37;;;6.50;;
26594;SDS011;14238;49.496;8.154;2024-02-21T01:51:58;12.60;;;7.10;;
26594;SDS011;14238;49.496;8.154;2024-02-21T01:54:25;11.27;;;7.07;;
26594;SDS011;14238;49.496;8.154;2024-02-21T01:56:53;8.67;;;6.80;;
26594;SDS011;14238;49.496;8.154;2024-02-21T01:59:19;11.67;;;8.17;;
26594;SDS011;14238;49.496;8.154;2024-02-21T02:01:47;9.87;;;7.37;;
26594;SDS011;14238;49.496;8.154;2024-02-21T02:04:13;15.20;;;8.90;;
26594;SDS011;14238;49.496;8.154;2024-02-21T02:06:39;9.63;;;8.03;;
26594;SDS011;14238;49.496;8.154;2024-02-21T02:09:05;9.27;;;7.53;;
26594;SDS011;14238;49.496;8.154;2024-02-21T02:11:31;11.33;;;7.50;;
26594;SDS011;14238;49.496;8.154;2024-02-21T02:13:57;11.53;;;8.10;;
26594;SDS011;14238;49.496;8.154;2024-02-21T02:16:23;11.43;;;8.07;;
26594;SDS011;14238;49.496;8.154;2024-02-21T02:18:48;10.97;;;6.83;;
26594;SDS011;14238;49.496;8.154;2024-02-21T02:21:22;10.97;;;7.83;;
26594;SDS011;14238;49.496;8.154;2024-02-21T02:24:03;7.33;;;6.50;;
26594;SDS011;14238;49.496;8.154;2024-02-21T02:26:29;11.70;;;7.40;;
26594;SDS011;14238;49.496;8.154;2024-02-21T02:28:55;11.53;;;7.90;;
26594;SDS011;14238;49.496;8.154;2024-02-21T02:31:20;12.53;;;7.73;;
26594;SDS011;14238;49.496;8.154;2024-02-21T02:33:46;12.00;;;7.07;;
26594;SDS011;14238;49.496;8.154;2024-02-21T02:36:13;12.00;;;7.17;;
26594;SDS011;14238;49.496;8.154;2024-02-21T02:38:38;13.23;;;8.27;;
26594;SDS011;14238;49.496;8.154;2024-02-21T02:41:05;7.63;;;6.53;;
26594;SDS011;14238;49.496;8.154;2024-02-21T02:43:31;12.20;;;7.70;;
26594;SDS011;14238;49.496;8.154;2024-02-21T02:45:57;13.77;;;8.10;;
26594;SDS011;14238;49.496;8.154;2024-02-21T02:48:22;11.80;;;5.83;;
26594;SDS011;14238;49.496;8.154;2024-02-21T02:50:48;9.80;;;6.33;;
26594;SDS011;14238;49.496;8.154;2024-02-21T02:53:14;9.47;;;6.60;;
26594;SDS011;14238;49.496;8.154;2024-02-21T02:55:40;11.10;;;6.70;;
26594;SDS011;14238;49.496;8.154;2024-02-21T02:58:05;7.83;;;5.53;;
26594;SDS011;14238;49.496;8.154;2024-02-21T03:00:31;13.80;;;7.00;;
26594;SDS011;14238;49.496;8.154;2024-02-21T03:03:01;8.13;;;5.13;;
26594;SDS011;14238;49.496;8.154;2024-02-21T03:05:29;9.07;;;6.03;;
26594;SDS011;14238;49.496;8.154;2024-02-21T03:07:54;11.67;;;5.40;;
26594;SDS011;14238;49.496;8.154;2024-02-21T03:10:20;10.07;;;7.27;;
26594;SDS011;14238;49.496;8.154;2024-02-21T03:12:46;10.40;;;5.57;;
26594;SDS011;14238;49.496;8.154;2024-02-21T03:15:12;11.80;;;5.50;;
26594;SDS011;14238;49.496;8.154;2024-02-21T03:17:38;11.50;;;5.20;;
26594;SDS011;14238;49.496;8.154;2024-02-21T03:20:04;7.60;;;5.37;;
26594;SDS011;14238;49.496;8.154;2024-02-21T03:22:33;7.53;;;6.17;;
26594;SDS011;14238;49.496;8.154;2024-02-21T03:24:59;11.17;;;5.60;;
26594;SDS011;14238;49.496;8.154;2024-02-21T03:27:24;7.53;;;5.10;;
26594;SDS011;14238;49.496;8.154;2024-02-21T03:29:50;8.90;;;5.10;;
26594;SDS011;14238;49.496;8.154;2024-02-21T03:32:15;6.60;;;5.30;;
26594;SDS011;14238;49.496;8.154;2024-02-21T03:34:41;6.43;;;5.33;;
26594;SDS011;14238;49.496;8.154;2024-02-21T03:37:06;7.83;;;5.10;;
26594;SDS011;14238;49.496;8.154;2024-02-21T03:39:32;10.47;;;4.73;;
26594;SDS011;14238;49.496;8.154;2024-02-21T03:41:58;10.97;;;5.50;;
26594;SDS011;14238;49.496;8.154;2024-02-21T03:44:26;6.67;;;4.93;;
26594;SDS011;14238;49.496;8.154;2024-02-21T03:46:52;11.37;;;5.30;;
26594;SDS011;14238;49.496;8.154;2024-02-21T03:49:18;8.00;;;4.33;;
26594;SDS011;14238;49.496;8.154;2024-02-21T03:51:43;7.07;;;4.87;;
26594;SDS011;14238;49.496;8.154;2024-02-21T03:54:09;8.53;;;4.43;;
26594;SDS011;14238;49.496;8.154;2024-02-21T03:56:37;8.43;;;4.90;;
26594;SDS011;14238;49.496;8.154;2024-02-21T03:59:04;11.10;;;6.07;;
26594;SDS011;14238;49.496;8.154;2024-02-21T04:01:36;9.00;;;4.37;;
26594;SDS011;14238;49.496;8.154;2024-02-21T04:04:01;8.93;;;4.50;;
26594;SDS011;14238;49.496;8.154;2024-02-21T04:06:27;8.10;;;4.80;;
26594;SDS011;14238;49.496;8.154;2024-02-21T04:08:53;6.27;;;4.73;;
26594;SDS011;14238;49.496;8.154;2024-02-21T04:11:19;7.43;;;4.67;;
26594;SDS011;14238;49.496;8.154;2024-02-21T04:13:45;7.80;;;4.47;;
26594;SDS011;14238;49.496;8.154;2024-02-21T04:16:13;9.97;;;5.00;;
26594;SDS011;14238;49.496;8.154;2024-02-21T04:18:39;7.80;;;4.97;;
26594;SDS011;14238;49.496;8.154;2024-02-21T04:21:05;5.87;;;4.60;;
26594;SDS011;14238;49.496;8.154;2024-02-21T04:23:30;8.10;;;4.40;;
26594;SDS011;14238;49.496;8.154;2024-02-21T04:25:56;10.37;;;5.47;;
26594;SDS011;14238;49.496;8.154;2024-02-21T04:28:21;7.50;;;4.40;;
26594;SDS011;14238;49.496;8.154;2024-02-21T04:30:47;7.43;;;4.47;;
26594;SDS011;14238;49.496;8.154;2024-02-21T04:33:12;7.93;;;4.60;;
26594;SDS011;14238;49.496;8.154;2024-02-21T04:35:38;8.63;;;3.97;;
26594;SDS011;14238;49.496;8.154;2024-02-21T04:38:04;10.30;;;5.07;;
26594;SDS011;14238;49.496;8.154;2024-02-21T04:40:30;6.20;;;4.30;;
26594;SDS011;14238;49.496;8.154;2024-02-21T04:42:55;14.40;;;4.97;;
26594;SDS011;14238;49.496;8.154;2024-02-21T04:45:22;9.20;;;5.10;;
26594;SDS011;14238;49.496;8.154;2024-02-21T04:47:47;8.23;;;5.30;;
26594;SDS011;14238;49.496;8.154;2024-02-21T04:50:13;9.60;;;4.70;;
26594;SDS011;14238;49.496;8.154;2024-02-21T04:52:39;8.97;;;5.77;;
26594;SDS011;14238;49.496;8.154;2024-02-21T04:55:04;9.60;;;5.53;;
26594;SDS011;14238;49.496;8.154;2024-02-21T04:57:30;11.13;;;6.30;;
26594;SDS011;14238;49.496;8.154;2024-02-21T04:59:56;9.80;;;6.10;;
26594;SDS011;14238;49.496;8.154;2024-02-21T05:02:22;7.77;;;5.73;;
26594;SDS011;14238;49.496;8.154;2024-02-21T05:04:49;7.70;;;5.03;;
26594;SDS011;14238;49.496;8.154;2024-02-21T05:07:15;7.90;;;5.33;;
26594;SDS011;14238;49.496;8.154;2024-02-21T05:09:41;5.93;;;5.33;;
26594;SDS011;14238;49.496;8.154;2024-02-21T05:12:07;8.40;;;5.10;;
26594;SDS011;14238;49.496;8.154;2024-02-21T05:14:33;11.83;;;6.00;;
26594;SDS011;14238;49.496;8.154;2024-02-21T05:16:59;7.80;;;4.43;;
26594;SDS011;14238;49.496;8.154;2024-02-21T05:19:24;9.67;;;5.40;;
26594;SDS011;14238;49.496;8.154;2024-02-21T05:21:50;7.93;;;5.30;;
26594;SDS011;14238;49.496;8.154;2024-02-21T05:24:15;9.93;;;5.03;;
26594;SDS011;14238;49.496;8.154;2024-02-21T05:26:41;8.23;;;5.83;;
26594;SDS011;14238;49.496;8.154;2024-02-21T05:29:06;7.20;;;5.47;;
26594;SDS011;14238;49.496;8.154;2024-02-21T05:34:16;9.37;;;5.93;;
26594;SDS011;14238;49.496;8.154;2024-02-21T05:36:42;8.43;;;5.80;;
26594;SDS011;14238;49.496;8.154;2024-02-21T05:39:07;8.10;;;5.30;;
26594;SDS011;14238;49.496;8.154;2024-02-21T05:41:33;10.40;;;5.37;;
26594;SDS011;14238;49.496;8.154;2024-02-21T05:43:58;9.17;;;5.70;;
26594;SDS011;14238;49.496;8.154;2024-02-21T05:46:24;6.90;;;5.20;;
26594;SDS011;14238;49.496;8.154;2024-02-21T05:48:49;9.60;;;5.67;;
26594;SDS011;14238;49.496;8.154;2024-02-21T05:51:15;14.63;;;6.20;;
26594;SDS011;14238;49.496;8.154;2024-02-21T05:53:40;6.20;;;5.60;;
26594;SDS011;14238;49.496;8.154;2024-02-21T05:56:12;8.60;;;5.47;;
26594;SDS011;14238;49.496;8.154;2024-02-21T05:58:38;6.73;;;5.20;;
26594;SDS011;14238;49.496;8.154;2024-02-21T06:01:04;8.90;;;5.03;;
26594;SDS011;14238;49.496;8.154;2024-02-21T06:03:31;7.50;;;5.37;;
26594;SDS011;14238;49.496;8.154;2024-02-21T06:05:57;9.03;;;5.90;;
26594;SDS011;14238;49.496;8.154;2024-02-21T06:08:23;11.03;;;5.60;;
26594;SDS011;14238;49.496;8.154;2024-02-21T06:10:48;7.13;;;5.20;;
26594;SDS011;14238;49.496;8.154;2024-02-21T06:13:17;9.53;;;5.40;;
26594;SDS011;14238;49.496;8.154;2024-02-21T06:15:42;5.60;;;4.77;;
26594;SDS011;14238;49.496;8.154;2024-02-21T06:18:08;9.73;;;6.60;;
26594;SDS011;14238;49.496;8.154;2024-02-21T06:20:33;7.10;;;5.60;;
26594;SDS011;14238;49.496;8.154;2024-02-21T06:23:01;6.07;;;5.33;;
26594;SDS011;14238;49.496;8.154;2024-02-21T06:25:26;6.57;;;5.40;;
26594;SDS011;14238;49.496;8.154;2024-02-21T06:27:52;6.67;;;6.03;;
26594;SDS011;14238;49.496;8.154;2024-02-21T06:30:17;10.50;;;5.83;;
26594;SDS011;14238;49.496;8.154;2024-02-21T06:32:43;13.03;;;6.93;;
26594;SDS011;14238;49.496;8.154;2024-02-21T06:35:08;9.00;;;6.40;;
26594;SDS011;14238;49.496;8.154;2024-02-21T06:37:34;11.83;;;6.30;;
26594;SDS011;14238;49.496;8.154;2024-02-21T06:40:00;10.43;;;7.20;;
26594;SDS011;14238;49.496;8.154;2024-02-21T06:42:25;11.00;;;6.57;;
26594;SDS011;14238;49.496;8.154;2024-02-21T06:44:51;7.63;;;6.57;;
26594;SDS011;14238;49.496;8.154;2024-02-21T06:47:17;8.80;;;6.67;;
26594;SDS011;14238;49.496;8.154;2024-02-21T06:49:42;10.70;;;5.70;;
26594;SDS011;14238;49.496;8.154;2024-02-21T06:52:08;8.90;;;6.83;;
26594;SDS011;14238;49.496;8.154;2024-02-21T06:54:33;9.30;;;6.77;;
26594;SDS011;14238;49.496;8.154;2024-02-21T06:56:59;10.80;;;6.87;;
26594;SDS011;14238;49.496;8.154;2024-02-21T06:59:24;11.07;;;6.93;;
26594;SDS011;14238;49.496;8.154;2024-02-21T07:01:54;7.93;;;6.03;;
26594;SDS011;14238;49.496;8.154;2024-02-21T07:04:20;12.33;;;7.27;;
26594;SDS011;14238;49.496;8.154;2024-02-21T07:06:46;10.10;;;7.07;;
26594;SDS011;14238;49.496;8.154;2024-02-21T07:09:11;12.03;;;7.20;;
26594;SDS011;14238;49.496;8.154;2024-02-21T07:11:37;10.90;;;6.97;;
26594;SDS011;14238;49.496;8.154;2024-02-21T07:14:02;10.43;;;8.10;;
26594;SDS011;14238;49.496;8.154;2024-02-21T07:16:28;8.33;;;7.50;;
26594;SDS011;14238;49.496;8.154;2024-02-21T07:18:54;10.27;;;8.20;;
26594;SDS011;14238;49.496;8.154;2024-02-21T07:21:20;10.13;;;8.00;;
26594;SDS011;14238;49.496;8.154;2024-02-21T07:23:45;9.13;;;8.23;;
26594;SDS011;14238;49.496;8.154;2024-02-21T07:26:11;17.77;;;7.50;;
26594;SDS011;14238;49.496;8.154;2024-02-21T07:28:36;10.90;;;7.90;;
26594;SDS011;14238;49.496;8.154;2024-02-21T07:31:02;13.20;;;8.50;;
26594;SDS011;14238;49.496;8.154;2024-02-21T07:33:28;8.53;;;7.40;;
26594;SDS011;14238;49.496;8.154;2024-02-21T07:35:55;9.93;;;7.37;;
26594;SDS011;14238;49.496;8.154;2024-02-21T07:38:21;11.37;;;7.27;;
26594;SDS011;14238;49.496;8.154;2024-02-21T07:40:47;13.87;;;7.60;;
26594;SDS011;14238;49.496;8.154;2024-02-21T07:43:13;8.23;;;6.17;;
26594;SDS011;14238;49.496;8.154;2024-02-21T07:45:38;8.47;;;6.60;;
26594;SDS011;14238;49.496;8.154;2024-02-21T07:48:05;13.10;;;5.70;;
26594;SDS011;14238;49.496;8.154;2024-02-21T07:50:31;10.67;;;6.43;;
26594;SDS011;14238;49.496;8.154;2024-02-21T07:52:56;9.43;;;4.67;;
26594;SDS011;14238;49.496;8.154;2024-02-21T07:55:22;5.87;;;4.97;;
26594;SDS011;14238;49.496;8.154;2024-02-21T07:57:48;9.60;;;5.70;;
26594;SDS011;14238;49.496;8.154;2024-02-21T08:00:14;8.90;;;5.47;;
26594;SDS011;14238;49.496;8.154;2024-02-21T08:02:44;20.03;;;7.30;;
26594;SDS011;14238;49.496;8.154;2024-02-21T08:05:16;12.67;;;7.03;;
26594;SDS011;14238;49.496;8.154;2024-02-21T08:07:42;11.40;;;6.77;;
26594;SDS011;14238;49.496;8.154;2024-02-21T08:10:07;11.30;;;8.00;;
26594;SDS011;14238;49.496;8.154;2024-02-21T08:12:33;11.87;;;7.40;;
26594;SDS011;14238;49.496;8.154;2024-02-21T08:14:59;10.13;;;4.90;;
26594;SDS011;14238;49.496;8.154;2024-02-21T08:17:25;8.23;;;6.50;;
26594;SDS011;14238;49.496;8.154;2024-02-21T08:19:50;9.93;;;6.40;;
26594;SDS011;14238;49.496;8.154;2024-02-21T08:22:16;7.50;;;5.20;;
26594;SDS011;14238;49.496;8.154;2024-02-21T08:24:42;9.93;;;6.30;;
26594;SDS011;14238;49.496;8.154;2024-02-21T08:27:07;13.57;;;6.80;;
26594;SDS011;14238;49.496;8.154;2024-02-21T08:29:33;7.07;;;5.10;;
26594;SDS011;14238;49.496;8.154;2024-02-21T08:31:58;11.90;;;6.30;;
26594;SDS011;14238;49.496;8.154;2024-02-21T08:34:24;12.70;;;7.00;;
26594;SDS011;14238;49.496;8.154;2024-02-21T08:36:49;8.47;;;6.73;;
26594;SDS011;14238;49.496;8.154;2024-02-21T08:39:15;10.10;;;7.43;;
26594;SDS011;14238;49.496;8.154;2024-02-21T08:41:41;10.80;;;7.77;;
26594;SDS011;14238;49.496;8.154;2024-02-21T08:44:07;9.77;;;7.53;;
26594;SDS011;14238;49.496;8.154;2024-02-21T08:46:33;10.00;;;8.47;;
26594;SDS011;14238;49.496;8.154;2024-02-21T08:48:58;9.43;;;7.30;;
26594;SDS011;14238;49.496;8.154;2024-02-21T08:51:24;9.27;;;7.77;;
26594;SDS011;14238;49.496;8.154;2024-02-21T08:53:50;11.47;;;8.20;;
26594;SDS011;14238;49.496;8.154;2024-02-21T08:56:16;13.43;;;8.33;;
26594;SDS011;14238;49.496;8.154;2024-02-21T08:58:42;14.13;;;7.77;;
26594;SDS011;14238;49.496;8.154;2024-02-21T09:01:08;13.23;;;8.40;;
26594;SDS011;14238;49.496;8.154;2024-02-21T09:03:36;14.07;;;7.50;;
26594;SDS011;14238;49.496;8.154;2024-02-21T09:06:02;9.37;;;6.60;;
26594;SDS011;14238;49.496;8.154;2024-02-21T09:08:29;9.93;;;7.40;;
26594;SDS011;14238;49.496;8.154;2024-02-21T09:10:54;14.90;;;7.83;;
26594;SDS011;14238;49.496;8.154;2024-02-21T09:13:20;11.10;;;6.43;;
26594;SDS011;14238;49.496;8.154;2024-02-21T09:15:47;8.60;;;7.43;;
26594;SDS011;14238;49.496;8.154;2024-02-21T09:18:13;11.80;;;7.30;;
26594;SDS011;14238;49.496;8.154;2024-02-21T09:20:39;8.80;;;5.73;;
26594;SDS011;14238;49.496;8.154;2024-02-21T09:23:05;4.90;;;4.00;;
26594;SDS011;14238;49.496;8.154;2024-02-21T09:25:30;6.00;;;3.30;;
26594;SDS011;14238;49.496;8.154;2024-02-21T09:27:56;6.63;;;4.10;;
26594;SDS011;14238;49.496;8.154;2024-02-21T09:30:23;5.53;;;3.87;;
26594;SDS011;14238;49.496;8.154;2024-02-21T09:32:49;9.20;;;3.80;;
26594;SDS011;14238;49.496;8.154;2024-02-21T09:35:14;7.03;;;3.77;;
26594;SDS011;14238;49.496;8.154;2024-02-21T09:37:40;6.80;;;3.87;;
26594;SDS011;14238;49.496;8.154;2024-02-21T09:40:06;10.20;;;3.97;;
26594;SDS011;14238;49.496;8.154;2024-02-21T09:42:36;5.07;;;3.20;;
26594;SDS011;14238;49.496;8.154;2024-02-21T09:45:06;4.90;;;3.63;;
26594;SDS011;14238;49.496;8.154;2024-02-21T09:47:41;6.90;;;4.07;;
26594;SDS011;14238;49.496;8.154;2024-02-21T09:50:27;9.13;;;3.20;;
26594;SDS011;14238;49.496;8.154;2024-02-21T09:52:56;5.17;;;3.30;;
26594;SDS011;14238;49.496;8.154;2024-02-21T09:55:23;10.13;;;3.90;;
26594;SDS011;14238;49.496;8.154;2024-02-21T09:57:52;4.90;;;3.57;;
26594;SDS011;14238;49.496;8.154;2024-02-21T10:00:19;4.30;;;3.90;;
26594;SDS011;14238;49.496;8.154;2024-02-21T10:02:47;7.17;;;3.47;;
26594;SDS011;14238;49.496;8.154;2024-02-21T10:05:14;5.33;;;3.90;;
26594;SDS011;14238;49.496;8.154;2024-02-21T10:07:40;5.03;;;3.60;;
26594;SDS011;14238;49.496;8.154;2024-02-21T10:10:06;5.90;;;3.93;;
26594;SDS011;14238;49.496;8.154;2024-02-21T10:12:32;6.70;;;3.33;;
26594;SDS011;14238;49.496;8.154;2024-02-21T10:15:04;4.23;;;3.03;;
26594;SDS011;14238;49.496;8.154;2024-02-21T10:17:32;10.83;;;3.57;;
26594;SDS011;14238;49.496;8.154;2024-02-21T10:20:09;5.37;;;3.40;;
26594;SDS011;14238;49.496;8.154;2024-02-21T10:22:37;5.87;;;2.73;;
26594;SDS011;14238;49.496;8.154;2024-02-21T10:25:10;6.00;;;3.10;;
26594;SDS011;14238;49.496;8.154;2024-02-21T10:27:40;6.97;;;4.93;;
26594;SDS011;14238;49.496;8.154;2024-02-21T10:30:13;8.23;;;3.00;;
26594;SDS011;14238;49.496;8.154;2024-02-21T10:32:49;4.33;;;3.93;;
26594;SDS011;14238;49.496;8.154;2024-02-21T10:35:24;4.83;;;2.73;;
26594;SDS011;14238;49.496;8.154;2024-02-21T10:37:54;6.00;;;3.67;;
26594;SDS011;14238;49.496;8.154;2024-02-21T10:40:24;3.27;;;2.40;;
26594;SDS011;14238;49.496;8.154;2024-02-21T10:42:53;5.30;;;3.10;;
26594;SDS011;14238;49.496;8.154;2024-02-21T10:45:34;5.00;;;3.10;;
26594;SDS011;14238;49.496;8.154;2024-02-21T10:51:03;4.07;;;2.63;;
26594;SDS011;14238;49.496;8.154;2024-02-21T10:56:33;4.20;;;3.27;;
26594;SDS011;14238;49.496;8.154;2024-02-21T10:59:02;7.90;;;3.53;;
26594;SDS011;14238;49.496;8.154;2024-02-21T11:01:29;4.50;;;2.77;;
26594;SDS011;14238;49.496;8.154;2024-02-21T11:03:57;4.13;;;3.00;;
26594;SDS011;14238;49.496;8.154;2024-02-21T11:06:26;4.97;;;2.70;;
26594;SDS011;14238;49.496;8.154;2024-02-21T11:11:54;5.17;;;2.90;;
26594;SDS011;14238;49.496;8.154;2024-02-21T11:14:21;3.40;;;3.10;;
26594;SDS011;14238;49.496;8.154;2024-02-21T11:16:46;4.33;;;2.73;;
26594;SDS011;14238;49.496;8.154;2024-02-21T11:19:19;3.83;;;2.20;;
26594;SDS011;14238;49.496;8.154;2024-02-21T11:21:46;3.30;;;2.63;;
26594;SDS011;14238;49.496;8.154;2024-02-21T11:24:28;4.50;;;2.50;;
26594;SDS011;14238;49.496;8.154;2024-02-21T11:26:55;5.13;;;2.53;;
26594;SDS011;14238;49.496;8.154;2024-02-21T11:29:24;3.43;;;2.67;;
26594;SDS011;14238;49.496;8.154;2024-02-21T11:31:51;7.10;;;2.50;;
26594;SDS011;14238;49.496;8.154;2024-02-21T11:34:17;2.47;;;2.27;;
26594;SDS011;14238;49.496;8.154;2024-02-21T11:36:47;2.57;;;2.37;;
26594;SDS011;14238;49.496;8.154;2024-02-21T11:39:26;4.70;;;2.27;;
26594;SDS011;14238;49.496;8.154;2024-02-21T11:42:01;5.83;;;2.73;;
26594;SDS011;14238;49.496;8.154;2024-02-21T11:44:29;2.83;;;2.03;;
26594;SDS011;14238;49.496;8.154;2024-02-21T11:46:54;3.40;;;2.50;;
26594;SDS011;14238;49.496;8.154;2024-02-21T11:49:20;2.17;;;1.97;;
26594;SDS011;14238;49.496;8.154;2024-02-21T11:51:46;3.30;;;2.03;;
26594;SDS011;14238;49.496;8.154;2024-02-21T11:54:11;5.40;;;2.60;;
26594;SDS011;14238;49.496;8.154;2024-02-21T11:56:41;4.70;;;2.90;;
26594;SDS011;14238;49.496;8.154;2024-02-21T11:59:06;2.97;;;2.00;;
26594;SDS011;14238;49.496;8.154;2024-02-21T12:01:33;2.30;;;2.10;;
26594;SDS011;14238;49.496;8.154;2024-02-21T12:03:59;6.87;;;2.47;;
26594;SDS011;14238;49.496;8.154;2024-02-21T12:06:24;3.70;;;2.70;;
26594;SDS011;14238;49.496;8.154;2024-02-21T12:08:50;4.87;;;2.40;;
26594;SDS011;14238;49.496;8.154;2024-02-21T12:11:19;4.73;;;2.47;;
26594;SDS011;14238;49.496;8.154;2024-02-21T12:13:46;4.03;;;2.10;;
26594;SDS011;14238;49.496;8.154;2024-02-21T12:16:14;4.83;;;2.70;;
26594;SDS011;14238;49.496;8.154;2024-02-21T12:18:41;6.80;;;2.30;;
26594;SDS011;14238;49.496;8.154;2024-02-21T12:21:07;4.77;;;2.67;;
26594;SDS011;14238;49.496;8.154;2024-02-21T12:23:33;3.70;;;3.17;;
26594;SDS011;14238;49.496;8.154;2024-02-21T12:25:59;3.27;;;2.53;;
26594;SDS011;14238;49.496;8.154;2024-02-21T12:28:24;5.77;;;3.40;;
26594;SDS011;14238;49.496;8.154;2024-02-21T12:30:51;3.60;;;2.20;;
26594;SDS011;14238;49.496;8.154;2024-02-21T12:33:17;3.60;;;1.83;;
26594;SDS011;14238;49.496;8.154;2024-02-21T12:35:43;4.57;;;2.63;;
26594;SDS011;14238;49.496;8.154;2024-02-21T12:38:08;2.83;;;2.53;;
26594;SDS011;14238;49.496;8.154;2024-02-21T12:40:34;4.63;;;2.10;;
26594;SDS011;14238;49.496;8.154;2024-02-21T12:43:00;4.23;;;2.10;;
26594;SDS011;14238;49.496;8.154;2024-02-21T12:45:27;4.33;;;2.97;;
26594;SDS011;14238;49.496;8.154;2024-02-21T12:47:53;5.10;;;2.50;;
26594;SDS011;14238;49.496;8.154;2024-02-21T12:50:19;3.53;;;2.70;;
26594;SDS011;14238;49.496;8.154;2024-02-21T12:52:45;2.80;;;2.60;;
26594;SDS011;14238;49.496;8.154;2024-02-21T12:55:11;3.00;;;2.60;;
26594;SDS011;14238;49.496;8.154;2024-02-21T12:57:38;2.57;;;1.87;;
26594;SDS011;14238;49.496;8.154;2024-02-21T13:00:04;2.67;;;2.40;;
26594;SDS011;14238;49.496;8.154;2024-02-21T13:02:33;4.43;;;2.20;;
26594;SDS011;14238;49.496;8.154;2024-02-21T13:04:59;2.53;;;2.30;;
26594;SDS011;14238;49.496;8.154;2024-02-21T13:07:25;3.50;;;2.20;;
26594;SDS011;14238;49.496;8.154;2024-02-21T13:09:51;2.50;;;2.07;;
26594;SDS011;14238;49.496;8.154;2024-02-21T13:12:17;2.27;;;1.80;;
26594;SDS011;14238;49.496;8.154;2024-02-21T13:14:42;6.93;;;3.40;;
26594;SDS011;14238;49.496;8.154;2024-02-21T13:17:09;5.03;;;3.90;;
26594;SDS011;14238;49.496;8.154;2024-02-21T13:19:34;6.80;;;4.20;;
26594;SDS011;14238;49.496;8.154;2024-02-21T13:22:00;5.97;;;5.00;;
26594;SDS011;14238;49.496;8.154;2024-02-21T13:24:27;6.70;;;4.30;;
26594;SDS011;14238;49.496;8.154;2024-02-21T13:26:52;5.37;;;3.80;;
26594;SDS011;14238;49.496;8.154;2024-02-21T13:29:18;7.17;;;4.60;;
26594;SDS011;14238;49.496;8.154;2024-02-21T13:31:45;7.20;;;5.20;;
26594;SDS011;14238;49.496;8.154;2024-02-21T13:34:11;6.63;;;4.10;;
26594;SDS011;14238;49.496;8.154;2024-02-21T13:36:36;7.93;;;4.33;;
26594;SDS011;14238;49.496;8.154;2024-02-21T13:39:02;4.57;;;4.17;;
26594;SDS011;14238;49.496;8.154;2024-02-21T13:41:30;7.20;;;5.07;;
26594;SDS011;14238;49.496;8.154;2024-02-21T13:43:55;4.53;;;4.23;;
26594;SDS011;14238;49.496;8.154;2024-02-21T13:46:21;8.03;;;4.50;;
26594;SDS011;14238;49.496;8.154;2024-02-21T13:48:47;4.67;;;3.97;;
26594;SDS011;14238;49.496;8.154;2024-02-21T13:51:12;4.80;;;4.40;;
26594;SDS011;14238;49.496;8.154;2024-02-21T13:53:38;5.60;;;4.30;;
26594;SDS011;14238;49.496;8.154;2024-02-21T13:56:03;4.80;;;4.10;;
26594;SDS011;14238;49.496;8.154;2024-02-21T13:58:29;10.20;;;4.10;;
26594;SDS011;14238;49.496;8.154;2024-02-21T14:00:55;4.17;;;3.77;;
26594;SDS011;14238;49.496;8.154;2024-02-21T14:03:21;5.83;;;3.83;;
26594;SDS011;14238;49.496;8.154;2024-02-21T14:05:47;6.10;;;4.50;;
26594;SDS011;14238;49.496;8.154;2024-02-21T14:08:13;4.67;;;4.23;;
26594;SDS011;14238;49.496;8.154;2024-02-21T14:10:39;6.63;;;4.73;;
26594;SDS011;14238;49.496;8.154;2024-02-21T14:13:05;5.30;;;4.00;;
26594;SDS011;14238;49.496;8.154;2024-02-21T14:15:30;6.27;;;4.67;;
26594;SDS011;14238;49.496;8.154;2024-02-21T14:17:56;9.80;;;6.20;;
26594;SDS011;14238;49.496;8.154;2024-02-21T14:20:22;7.20;;;4.70;;
26594;SDS011;14238;49.496;8.154;2024-02-21T14:22:47;7.50;;;5.20;;
26594;SDS011;14238;49.496;8.154;2024-02-21T14:25:13;5.73;;;5.07;;
26594;SDS011;14238;49.496;8.154;2024-02-21T14:27:40;4.70;;;3.90;;
26594;SDS011;14238;49.496;8.154;2024-02-21T14:30:06;4.80;;;4.40;;
26594;SDS011;14238;49.496;8.154;2024-02-21T14:32:35;10.87;;;6.13;;
26594;SDS011;14238;49.496;8.154;2024-02-21T14:35:01;6.87;;;5.50;;
26594;SDS011;14238;49.496;8.154;2024-02-21T14:37:27;5.30;;;4.63;;
26594;SDS011;14238;49.496;8.154;2024-02-21T14:39:53;6.63;;;4.83;;
26594;SDS011;14238;49.496;8.154;2024-02-21T14:42:18;6.07;;;5.10;;
26594;SDS011;14238;49.496;8.154;2024-02-21T14:44:44;7.13;;;4.30;;
26594;SDS011;14238;49.496;8.154;2024-02-21T14:47:09;8.00;;;5.87;;
26594;SDS011;14238;49.496;8.154;2024-02-21T14:49:35;11.20;;;6.20;;